createdAt,value
2023-05-01T00:00:30.194Z,2.28
2023-05-01T00:05:04.770Z,2.53
2023-05-01T00:09:22.366Z,3.08
2023-05-01T00:13:40.164Z,2.75
2023-05-01T00:17:58.011Z,2.63
2023-05-01T00:22:16.552Z,2.63
2023-05-01T00:26:34.088Z,3.33
2023-05-01T00:30:52.554Z,3.05
2023-05-01T00:39:28.020Z,2.90
2023-05-01T00:43:45.743Z,3.00
2023-05-01T00:48:03.768Z,2.90
2023-05-01T00:52:21.411Z,2.60
2023-05-01T00:56:39.182Z,2.33
2023-05-01T01:00:57.482Z,2.70
2023-05-01T01:05:15.318Z,2.58
2023-05-01T01:10:14.641Z,2.95
2023-05-01T01:14:45.943Z,3.38
2023-05-01T01:19:26.115Z,3.30
2023-05-01T01:24:24.678Z,3.35
2023-05-01T01:29:37.055Z,3.65
2023-05-01T01:34:02.165Z,3.58
2023-05-01T01:38:31.638Z,3.60
2023-05-01T01:42:55.614Z,3.28
2023-05-01T01:47:15.579Z,3.78
2023-05-01T01:51:34.613Z,3.28
2023-05-01T01:55:54.929Z,3.58
2023-05-01T02:00:14.494Z,3.17
2023-05-01T02:04:33.251Z,3.13
2023-05-01T02:08:52.188Z,3.13
2023-05-01T02:13:12.574Z,2.90
2023-05-01T02:17:30.966Z,3.60
2023-05-01T02:21:50.639Z,4.47
2023-05-01T02:26:13.850Z,4.18
2023-05-01T02:30:32.790Z,3.53
2023-05-01T02:34:50.455Z,4.05
2023-05-01T02:39:08.995Z,3.40
2023-05-01T02:43:28.990Z,3.95
2023-05-01T02:47:51.913Z,2.88
2023-05-01T02:52:10.372Z,3.00
2023-05-01T02:56:31.484Z,2.95
2023-05-01T03:00:50.223Z,3.25
2023-05-01T03:05:09.013Z,3.67
2023-05-01T03:09:26.925Z,3.70
2023-05-01T03:13:44.677Z,3.90
2023-05-01T03:18:02.939Z,4.93
2023-05-01T03:22:21.490Z,4.07
2023-05-01T03:26:39.320Z,9.88
2023-05-01T03:30:56.971Z,6.18
2023-05-01T03:35:14.978Z,7.03
2023-05-01T03:39:32.564Z,4.40
2023-05-01T03:43:51.165Z,3.45
2023-05-01T03:48:08.775Z,4.13
2023-05-01T03:52:27.009Z,3.83
2023-05-01T04:01:03.291Z,3.57
2023-05-01T04:05:21.737Z,3.53
2023-05-01T04:09:39.493Z,3.20
2023-05-01T04:13:57.027Z,3.05
2023-05-01T04:18:14.907Z,3.35
2023-05-01T04:31:08.858Z,3.30
2023-05-01T04:35:27.203Z,2.90
2023-05-01T04:39:44.933Z,2.90
2023-05-01T04:44:02.739Z,2.35
2023-05-01T04:48:20.411Z,2.53
2023-05-01T04:52:38.303Z,2.95
2023-05-01T04:56:56.037Z,3.10
2023-05-01T05:01:13.816Z,3.10
2023-05-01T05:05:31.382Z,4.00
2023-05-01T05:09:49.391Z,2.95
2023-05-01T05:14:06.935Z,2.55
2023-05-01T05:18:24.653Z,2.25
2023-05-01T05:22:42.496Z,2.28
2023-05-01T05:27:01.642Z,2.22
2023-05-01T05:31:19.283Z,2.00
2023-05-01T05:35:37.262Z,2.20
2023-05-01T05:39:55.230Z,2.08
2023-05-01T05:48:30.741Z,2.53
2023-05-01T05:52:48.421Z,1.50
2023-05-01T05:57:06.049Z,1.50
2023-05-01T06:01:23.890Z,1.98
2023-05-01T06:05:41.890Z,1.98
2023-05-01T06:10:04.571Z,1.80
2023-05-01T06:14:22.360Z,1.73
2023-05-01T06:18:39.993Z,1.60
2023-05-01T06:22:58.238Z,1.88
2023-05-01T06:27:16.040Z,1.67
2023-05-01T06:31:33.673Z,1.25
2023-05-01T06:35:51.931Z,1.80
2023-05-01T06:40:10.145Z,1.45
2023-05-01T06:48:45.454Z,1.42
2023-05-01T06:53:03.463Z,1.10
2023-05-01T06:57:21.210Z,1.55
2023-05-01T07:01:39.018Z,1.10
2023-05-01T07:05:56.799Z,1.48
2023-05-01T07:10:14.779Z,1.08
2023-05-01T07:14:32.384Z,1.40
2023-05-01T07:18:50.256Z,1.30
2023-05-01T07:23:08.101Z,1.40
2023-05-01T07:27:26.175Z,1.25
2023-05-01T07:36:02.253Z,1.35
2023-05-01T07:40:19.812Z,0.88
2023-05-01T07:44:37.657Z,1.25
2023-05-01T07:48:55.281Z,1.77
2023-05-01T07:53:12.970Z,1.80
2023-05-01T07:57:33.745Z,1.20
2023-05-01T08:01:51.653Z,1.02
2023-05-01T08:06:09.249Z,1.45
2023-05-01T08:10:28.816Z,1.15
2023-05-01T08:14:46.615Z,1.00
2023-05-01T08:19:04.536Z,1.35
2023-05-01T08:23:22.334Z,1.08
2023-05-01T08:27:40.586Z,1.55
2023-05-01T08:31:58.993Z,1.50
2023-05-01T08:36:17.805Z,1.33
2023-05-01T08:40:40.873Z,0.75
2023-05-01T08:45:01.494Z,1.20
2023-05-01T08:49:21.754Z,1.10
2023-05-01T08:53:41.667Z,1.25
2023-05-01T08:58:00.230Z,1.48
2023-05-01T09:02:18.863Z,1.52
2023-05-01T09:06:36.677Z,1.25
2023-05-01T09:10:56.984Z,1.10
2023-05-01T09:15:14.879Z,1.13
2023-05-01T09:19:32.925Z,1.23
2023-05-01T09:23:54.118Z,1.08
2023-05-01T09:28:12.068Z,1.60
2023-05-01T09:32:30.051Z,0.85
2023-05-01T09:41:06.621Z,1.05
2023-05-01T09:49:48.419Z,0.93
2023-05-01T09:54:19.669Z,1.75
2023-05-01T09:58:37.345Z,1.08
2023-05-01T10:02:55.281Z,1.70
2023-05-01T10:07:14.761Z,1.23
2023-05-01T10:12:00.404Z,1.23
2023-05-01T10:16:30.711Z,1.60
2023-05-01T10:20:48.607Z,1.60
2023-05-01T10:25:13.528Z,1.40
2023-05-01T10:29:32.482Z,2.05
2023-05-01T10:33:50.490Z,1.35
2023-05-01T10:38:19.598Z,1.20
2023-05-01T10:43:18.538Z,1.05
2023-05-01T10:47:41.768Z,1.08
2023-05-01T10:52:02.152Z,1.60
2023-05-01T10:56:25.629Z,1.40
2023-05-01T11:00:43.240Z,1.40
2023-05-01T11:05:01.713Z,1.30
2023-05-01T11:09:41.424Z,1.10
2023-05-01T11:14:04.977Z,1.30
2023-05-01T11:18:47.805Z,1.27
2023-05-01T11:23:05.480Z,1.08
2023-05-01T11:27:23.099Z,0.98
2023-05-01T11:31:40.464Z,1.20
2023-05-01T11:36:00.395Z,1.45
2023-05-01T11:40:30.820Z,1.15
2023-05-01T11:45:11.855Z,1.27
2023-05-01T11:49:29.899Z,1.20
2023-05-01T11:54:15.784Z,1.15
2023-05-01T11:58:34.643Z,1.00
2023-05-01T12:03:13.421Z,1.08
2023-05-01T12:07:32.770Z,1.10
2023-05-01T12:11:53.255Z,1.00
2023-05-01T12:16:11.768Z,0.93
2023-05-01T12:20:37.011Z,1.35
2023-05-01T12:24:54.965Z,0.85
2023-05-01T12:29:13.160Z,1.20
2023-05-01T12:33:30.852Z,1.08
2023-05-01T12:37:48.994Z,0.98
2023-05-01T12:42:14.416Z,0.80
2023-05-01T12:46:32.617Z,1.00
2023-05-01T12:50:55.031Z,0.77
2023-05-01T12:55:13.177Z,0.80
2023-05-01T12:59:31.600Z,0.90
2023-05-01T13:03:49.272Z,0.90
2023-05-01T13:08:07.352Z,0.70
2023-05-01T13:12:26.528Z,1.10
2023-05-01T13:16:47.453Z,1.30
2023-05-01T13:21:09.416Z,1.10
2023-05-01T13:25:27.687Z,0.90
2023-05-01T13:29:55.854Z,0.85
2023-05-01T13:34:19.013Z,0.93
2023-05-01T13:38:47.264Z,1.05
2023-05-01T13:43:05.230Z,0.85
2023-05-01T13:47:28.299Z,1.23
2023-05-01T13:51:46.951Z,0.80
2023-05-01T13:56:10.474Z,0.98
2023-05-01T14:00:28.297Z,1.35
2023-05-01T14:04:46.314Z,1.02
2023-05-01T14:09:06.049Z,1.63
2023-05-01T14:13:23.613Z,1.08
2023-05-01T14:17:41.585Z,1.13
2023-05-01T14:21:59.789Z,1.02
2023-05-01T14:26:19.784Z,1.17
2023-05-01T14:30:40.243Z,1.02
2023-05-01T14:34:59.881Z,0.95
2023-05-01T14:39:18.909Z,1.15
2023-05-01T14:43:37.269Z,0.95
2023-05-01T14:47:55.088Z,1.17
2023-05-01T14:52:14.272Z,1.10
2023-05-01T14:56:31.979Z,0.90
2023-05-01T15:00:49.646Z,1.65
2023-05-01T15:09:24.760Z,0.88
2023-05-01T15:13:44.916Z,1.00
2023-05-01T15:18:03.783Z,1.58
2023-05-01T15:22:24.699Z,1.35
2023-05-01T15:26:42.803Z,1.00
2023-05-01T15:31:00.501Z,0.75
2023-05-01T15:35:18.168Z,0.65
2023-05-01T15:39:35.946Z,0.93
2023-05-01T15:43:53.676Z,1.15
2023-05-01T15:48:14.264Z,0.93
2023-05-01T15:52:31.976Z,1.20
2023-05-01T15:56:49.658Z,0.95
2023-05-01T16:01:09.085Z,1.10
2023-05-01T16:05:26.930Z,0.70
2023-05-01T16:09:44.574Z,0.90
2023-05-01T16:14:02.630Z,0.80
2023-05-01T16:22:42.995Z,0.77
2023-05-01T16:27:00.597Z,1.45
2023-05-01T16:31:27.133Z,1.10
2023-05-01T16:35:48.625Z,0.85
2023-05-01T16:40:10.576Z,0.65
2023-05-01T16:44:28.340Z,1.10
2023-05-01T16:48:46.065Z,1.00
2023-05-01T16:53:03.604Z,0.90
2023-05-01T16:57:21.339Z,0.85
2023-05-01T17:01:38.446Z,0.85
2023-05-01T17:05:56.374Z,0.90
2023-05-01T17:10:13.907Z,1.08
2023-05-01T17:14:32.428Z,0.82
2023-05-01T17:18:49.976Z,0.80
2023-05-01T17:23:07.937Z,1.17
2023-05-01T17:31:43.180Z,1.27
2023-05-01T17:36:00.871Z,1.35
2023-05-01T17:40:18.480Z,1.67
2023-05-01T17:44:36.295Z,2.08
2023-05-01T17:48:54.230Z,1.40
2023-05-01T17:53:12.207Z,1.70
2023-05-01T18:01:48.656Z,1.35
2023-05-01T18:06:06.778Z,2.10
2023-05-01T18:10:30.252Z,2.45
2023-05-01T18:14:48.039Z,2.13
2023-05-01T18:19:05.597Z,2.78
2023-05-01T18:23:25.592Z,2.42
2023-05-01T18:27:44.853Z,3.17
2023-05-01T18:32:03.029Z,3.65
2023-05-01T18:36:20.899Z,4.72
2023-05-01T18:40:38.575Z,4.80
2023-05-01T18:44:57.100Z,4.55
2023-05-01T18:49:14.833Z,7.35
2023-05-01T18:53:32.399Z,6.93
2023-05-01T18:57:50.268Z,7.18
2023-05-01T19:06:29.462Z,3.47
2023-05-01T19:10:47.172Z,6.57
2023-05-01T19:15:05.055Z,4.28
2023-05-01T19:19:23.182Z,2.55
2023-05-01T19:28:02.273Z,2.55
2023-05-01T19:32:21.030Z,2.55
2023-05-01T19:36:38.872Z,2.60
2023-05-01T19:40:57.855Z,3.17
2023-05-01T19:45:17.713Z,2.15
2023-05-01T19:49:35.682Z,2.05
2023-05-01T19:53:53.513Z,2.28
2023-05-01T19:58:11.628Z,2.22
2023-05-01T20:06:47.712Z,2.75
2023-05-01T20:11:05.620Z,2.33
2023-05-01T20:15:23.324Z,2.35
2023-05-01T20:19:44.294Z,1.67
2023-05-01T20:24:01.831Z,2.55
2023-05-01T20:28:20.963Z,2.25
2023-05-01T20:32:44.395Z,2.15
2023-05-01T20:37:02.723Z,2.17
2023-05-01T20:41:20.555Z,3.78
2023-05-01T20:45:38.332Z,4.35
2023-05-01T20:49:57.032Z,10.50
2023-05-01T20:54:14.994Z,10.88
2023-05-01T20:58:32.677Z,6.65
2023-05-01T21:02:52.274Z,7.28
2023-05-01T21:07:10.405Z,3.60
2023-05-01T21:15:45.783Z,3.05
2023-05-01T21:20:10.945Z,2.85
2023-05-01T21:24:28.609Z,2.72
2023-05-01T21:28:46.572Z,2.55
2023-05-01T21:37:30.216Z,6.25
2023-05-01T21:41:49.345Z,4.50
2023-05-01T21:46:15.512Z,3.33
2023-05-01T21:50:40.352Z,2.78
2023-05-01T21:54:58.184Z,3.33
2023-05-01T21:59:18.059Z,3.08
2023-05-01T22:03:41.926Z,3.58
2023-05-01T22:08:00.637Z,3.70
2023-05-01T22:12:18.657Z,2.95
2023-05-01T22:16:36.198Z,3.63
2023-05-01T22:20:54.121Z,2.67
2023-05-01T22:25:12.260Z,3.25
2023-05-01T22:33:47.955Z,3.00
2023-05-01T22:38:05.742Z,3.22
2023-05-01T22:42:23.475Z,3.22
2023-05-01T22:51:02.815Z,3.10
2023-05-01T22:55:20.669Z,3.60
2023-05-01T22:59:39.740Z,3.67
2023-05-01T23:03:58.078Z,3.60
2023-05-01T23:08:15.810Z,3.80
2023-05-01T23:12:34.452Z,3.63
2023-05-01T23:16:52.181Z,3.30
2023-05-01T23:21:19.773Z,3.50
2023-05-01T23:25:44.487Z,3.72
2023-05-01T23:30:04.425Z,3.47
2023-05-01T23:34:22.516Z,2.95
2023-05-01T23:38:40.804Z,3.05
2023-05-01T23:42:58.957Z,3.25
2023-05-01T23:47:17.145Z,3.70
2023-05-01T23:51:35.406Z,2.83
2023-05-01T23:55:53.181Z,3.28
